sensor_id;sensor_type;location;lat;lon;timestamp;temperature;humidity
11961;DHT22;6040;49.358;11.140;2023-11-19T00:01:25;5.40;99.90
11961;DHT22;6040;49.358;11.140;2023-11-19T00:03:53;5.50;99.90
11961;DHT22;6040;49.358;11.140;2023-11-19T00:06:20;5.50;99.90
11961;DHT22;6040;49.358;11.140;2023-11-19T00:08:47;5.60;99.90
11961;DHT22;6040;49.358;11.140;2023-11-19T00:11:14;5.80;99.90
11961;DHT22;6040;49.358;11.140;2023-11-19T00:13:41;5.50;99.90
11961;DHT22;6040;49.358;11.140;2023-11-19T00:16:08;5.50;99.90
11961;DHT22;6040;49.358;11.140;2023-11-19T00:18:35;5.40;99.90
11961;DHT22;6040;49.358;11.140;2023-11-19T00:21:04;6.50;99.90
11961;DHT22;6040;49.358;11.140;2023-11-19T00:23:31;5.50;99.90
11961;DHT22;6040;49.358;11.140;2023-11-19T00:25:58;5.40;99.90
11961;DHT22;6040;49.358;11.140;2023-11-19T00:28:25;6.50;99.90
11961;DHT22;6040;49.358;11.140;2023-11-19T00:30:52;5.50;99.90
11961;DHT22;6040;49.358;11.140;2023-11-19T00:33:19;5.40;99.90
11961;DHT22;6040;49.358;11.140;2023-11-19T00:35:46;8.80;99.90
11961;DHT22;6040;49.358;11.140;2023-11-19T00:38:15;7.40;99.90
11961;DHT22;6040;49.358;11.140;2023-11-19T00:40:42;5.60;99.90
11961;DHT22;6040;49.358;11.140;2023-11-19T00:43:09;5.60;99.90
11961;DHT22;6040;49.358;11.140;2023-11-19T00:45:36;5.80;99.90
11961;DHT22;6040;49.358;11.140;2023-11-19T00:48:03;5.70;99.90
11961;DHT22;6040;49.358;11.140;2023-11-19T00:50:30;5.80;99.90
11961;DHT22;6040;49.358;11.140;2023-11-19T00:52:58;5.80;99.90
11961;DHT22;6040;49.358;11.140;2023-11-19T00:55:26;5.80;99.90
11961;DHT22;6040;49.358;11.140;2023-11-19T00:57:53;6.50;99.90
11961;DHT22;6040;49.358;11.140;2023-11-19T01:00:21;6.70;99.90
11961;DHT22;6040;49.358;11.140;2023-11-19T01:02:50;8.30;99.90
11961;DHT22;6040;49.358;11.140;2023-11-19T01:05:16;5.60;99.90
11961;DHT22;6040;49.358;11.140;2023-11-19T01:07:47;5.50;99.90
11961;DHT22;6040;49.358;11.140;2023-11-19T01:10:14;5.50;99.90
11961;DHT22;6040;49.358;11.140;2023-11-19T01:12:42;5.80;99.90
11961;DHT22;6040;49.358;11.140;2023-11-19T01:15:09;8.30;99.90
11961;DHT22;6040;49.358;11.140;2023-11-19T01:17:37;8.30;99.90
11961;DHT22;6040;49.358;11.140;2023-11-19T01:20:04;5.90;99.90
11961;DHT22;6040;49.358;11.140;2023-11-19T01:22:32;5.70;99.90
11961;DHT22;6040;49.358;11.140;2023-11-19T01:24:59;7.10;99.90
11961;DHT22;6040;49.358;11.140;2023-11-19T01:27:26;8.80;99.90
11961;DHT22;6040;49.358;11.140;2023-11-19T01:29:54;8.70;99.90
11961;DHT22;6040;49.358;11.140;2023-11-19T01:32:21;5.60;99.90
11961;DHT22;6040;49.358;11.140;2023-11-19T01:34:49;5.60;99.90
11961;DHT22;6040;49.358;11.140;2023-11-19T01:37:16;5.70;99.90
11961;DHT22;6040;49.358;11.140;2023-11-19T01:39:43;5.90;99.90
11961;DHT22;6040;49.358;11.140;2023-11-19T01:42:11;6.00;99.90
11961;DHT22;6040;49.358;11.140;2023-11-19T01:44:39;6.00;99.90
11961;DHT22;6040;49.358;11.140;2023-11-19T01:47:07;9.00;99.90
11961;DHT22;6040;49.358;11.140;2023-11-19T01:49:35;5.90;99.90
11961;DHT22;6040;49.358;11.140;2023-11-19T01:52:01;6.00;99.90
11961;DHT22;6040;49.358;11.140;2023-11-19T01:54:28;5.90;99.90
11961;DHT22;6040;49.358;11.140;2023-11-19T01:56:56;6.00;99.90
11961;DHT22;6040;49.358;11.140;2023-11-19T01:59:24;6.00;99.90
11961;DHT22;6040;49.358;11.140;2023-11-19T02:01:53;5.90;99.90
11961;DHT22;6040;49.358;11.140;2023-11-19T02:04:21;9.10;99.90
11961;DHT22;6040;49.358;11.140;2023-11-19T02:06:48;6.00;99.90
11961;DHT22;6040;49.358;11.140;2023-11-19T02:09:18;7.60;99.90
11961;DHT22;6040;49.358;11.140;2023-11-19T02:11:46;6.10;99.90
11961;DHT22;6040;49.358;11.140;2023-11-19T02:14:14;7.20;99.90
11961;DHT22;6040;49.358;11.140;2023-11-19T02:16:41;6.10;99.90
11961;DHT22;6040;49.358;11.140;2023-11-19T02:19:08;6.00;99.90
11961;DHT22;6040;49.358;11.140;2023-11-19T02:21:37;9.20;99.90
11961;DHT22;6040;49.358;11.140;2023-11-19T02:24:06;6.00;99.90
11961;DHT22;6040;49.358;11.140;2023-11-19T02:26:39;6.10;99.90
11961;DHT22;6040;49.358;11.140;2023-11-19T02:29:12;6.00;99.90
11961;DHT22;6040;49.358;11.140;2023-11-19T02:31:39;6.00;99.90
11961;DHT22;6040;49.358;11.140;2023-11-19T02:34:06;5.80;99.90
11961;DHT22;6040;49.358;11.140;2023-11-19T02:36:33;5.90;99.90
11961;DHT22;6040;49.358;11.140;2023-11-19T02:39:00;5.80;99.90
11961;DHT22;6040;49.358;11.140;2023-11-19T02:41:28;6.00;99.90
11961;DHT22;6040;49.358;11.140;2023-11-19T02:43:55;6.10;99.90
11961;DHT22;6040;49.358;11.140;2023-11-19T02:46:23;6.00;99.90
11961;DHT22;6040;49.358;11.140;2023-11-19T02:48:50;5.90;99.90
11961;DHT22;6040;49.358;11.140;2023-11-19T02:51:17;8.60;99.90
11961;DHT22;6040;49.358;11.140;2023-11-19T02:53:44;8.60;99.90
11961;DHT22;6040;49.358;11.140;2023-11-19T02:56:13;5.90;99.90
11961;DHT22;6040;49.358;11.140;2023-11-19T02:58:46;6.10;99.90
11961;DHT22;6040;49.358;11.140;2023-11-19T03:01:14;9.20;99.90
11961;DHT22;6040;49.358;11.140;2023-11-19T03:03:57;6.40;99.90
11961;DHT22;6040;49.358;11.140;2023-11-19T03:06:24;7.50;99.90
11961;DHT22;6040;49.358;11.140;2023-11-19T03:08:52;7.00;99.90
11961;DHT22;6040;49.358;11.140;2023-11-19T03:11:19;8.20;99.90
11961;DHT22;6040;49.358;11.140;2023-11-19T03:13:46;5.90;99.90
11961;DHT22;6040;49.358;11.140;2023-11-19T03:16:13;6.00;99.90
11961;DHT22;6040;49.358;11.140;2023-11-19T03:18:40;5.90;99.90
11961;DHT22;6040;49.358;11.140;2023-11-19T03:21:08;5.90;99.90
11961;DHT22;6040;49.358;11.140;2023-11-19T03:23:35;5.90;99.90
11961;DHT22;6040;49.358;11.140;2023-11-19T03:26:03;6.20;99.90
11961;DHT22;6040;49.358;11.140;2023-11-19T03:28:31;6.40;99.90
11961;DHT22;6040;49.358;11.140;2023-11-19T03:30:58;6.20;99.90
11961;DHT22;6040;49.358;11.140;2023-11-19T03:33:24;8.50;99.90
11961;DHT22;6040;49.358;11.140;2023-11-19T03:35:53;6.70;99.90
11961;DHT22;6040;49.358;11.140;2023-11-19T03:38:23;6.20;99.90
11961;DHT22;6040;49.358;11.140;2023-11-19T03:40:50;7.30;99.90
11961;DHT22;6040;49.358;11.140;2023-11-19T03:43:16;6.10;99.90
11961;DHT22;6040;49.358;11.140;2023-11-19T03:45:44;6.30;99.90
11961;DHT22;6040;49.358;11.140;2023-11-19T03:48:11;6.40;99.90
11961;DHT22;6040;49.358;11.140;2023-11-19T03:50:38;6.50;99.90
11961;DHT22;6040;49.358;11.140;2023-11-19T03:53:05;6.60;99.90
11961;DHT22;6040;49.358;11.140;2023-11-19T03:55:33;6.60;99.90
11961;DHT22;6040;49.358;11.140;2023-11-19T03:58:00;6.80;99.90
11961;DHT22;6040;49.358;11.140;2023-11-19T04:00:27;6.60;99.90
11961;DHT22;6040;49.358;11.140;2023-11-19T04:02:54;6.60;99.90
11961;DHT22;6040;49.358;11.140;2023-11-19T04:05:20;6.60;99.90
11961;DHT22;6040;49.358;11.140;2023-11-19T04:07:47;6.70;99.90
11961;DHT22;6040;49.358;11.140;2023-11-19T04:10:14;7.00;99.90
11961;DHT22;6040;49.358;11.140;2023-11-19T04:12:44;6.70;99.90
11961;DHT22;6040;49.358;11.140;2023-11-19T04:15:11;6.70;99.90
11961;DHT22;6040;49.358;11.140;2023-11-19T04:17:38;6.60;99.90
11961;DHT22;6040;49.358;11.140;2023-11-19T04:20:06;6.50;99.90
11961;DHT22;6040;49.358;11.140;2023-11-19T04:22:36;6.40;99.90
11961;DHT22;6040;49.358;11.140;2023-11-19T04:25:03;6.40;99.90
11961;DHT22;6040;49.358;11.140;2023-11-19T04:27:31;6.50;99.90
11961;DHT22;6040;49.358;11.140;2023-11-19T04:29:59;6.50;99.90
11961;DHT22;6040;49.358;11.140;2023-11-19T04:32:27;6.70;99.90
11961;DHT22;6040;49.358;11.140;2023-11-19T04:34:54;6.50;99.90
11961;DHT22;6040;49.358;11.140;2023-11-19T04:37:21;6.60;99.90
11961;DHT22;6040;49.358;11.140;2023-11-19T04:39:48;9.00;99.90
11961;DHT22;6040;49.358;11.140;2023-11-19T04:42:15;6.70;99.90
11961;DHT22;6040;49.358;11.140;2023-11-19T04:44:43;6.70;99.90
11961;DHT22;6040;49.358;11.140;2023-11-19T04:47:11;7.70;99.90
11961;DHT22;6040;49.358;11.140;2023-11-19T04:49:40;7.30;99.90
11961;DHT22;6040;49.358;11.140;2023-11-19T04:52:08;6.70;99.90
11961;DHT22;6040;49.358;11.140;2023-11-19T04:54:35;7.10;99.90
11961;DHT22;6040;49.358;11.140;2023-11-19T04:57:02;6.70;99.90
11961;DHT22;6040;49.358;11.140;2023-11-19T04:59:29;6.70;99.90
11961;DHT22;6040;49.358;11.140;2023-11-19T05:01:56;6.70;99.90
11961;DHT22;6040;49.358;11.140;2023-11-19T05:04:24;10.60;99.90
11961;DHT22;6040;49.358;11.140;2023-11-19T05:06:51;6.70;99.90
11961;DHT22;6040;49.358;11.140;2023-11-19T05:09:19;6.80;99.90
11961;DHT22;6040;49.358;11.140;2023-11-19T05:11:46;6.80;99.90
11961;DHT22;6040;49.358;11.140;2023-11-19T05:14:13;7.20;99.90
11961;DHT22;6040;49.358;11.140;2023-11-19T05:16:40;9.20;99.90
11961;DHT22;6040;49.358;11.140;2023-11-19T05:19:08;6.70;99.90
11961;DHT22;6040;49.358;11.140;2023-11-19T05:21:36;6.70;99.90
11961;DHT22;6040;49.358;11.140;2023-11-19T05:24:04;7.50;99.90
11961;DHT22;6040;49.358;11.140;2023-11-19T05:26:31;6.70;99.90
11961;DHT22;6040;49.358;11.140;2023-11-19T05:28:58;6.70;99.90
11961;DHT22;6040;49.358;11.140;2023-11-19T05:31:24;7.90;99.90
11961;DHT22;6040;49.358;11.140;2023-11-19T05:33:51;6.80;99.90
11961;DHT22;6040;49.358;11.140;2023-11-19T05:36:18;6.80;99.90
11961;DHT22;6040;49.358;11.140;2023-11-19T05:38:46;6.80;99.90
11961;DHT22;6040;49.358;11.140;2023-11-19T05:41:13;7.90;99.90
11961;DHT22;6040;49.358;11.140;2023-11-19T05:43:40;6.80;99.90
11961;DHT22;6040;49.358;11.140;2023-11-19T05:46:07;6.80;99.90
11961;DHT22;6040;49.358;11.140;2023-11-19T05:48:34;7.90;99.90
11961;DHT22;6040;49.358;11.140;2023-11-19T05:51:01;7.80;99.90
11961;DHT22;6040;49.358;11.140;2023-11-19T05:53:28;6.90;99.90
11961;DHT22;6040;49.358;11.140;2023-11-19T05:55:57;6.90;99.90
11961;DHT22;6040;49.358;11.140;2023-11-19T05:58:24;7.00;99.90
11961;DHT22;6040;49.358;11.140;2023-11-19T06:00:54;8.30;99.90
11961;DHT22;6040;49.358;11.140;2023-11-19T06:03:21;7.00;99.90
11961;DHT22;6040;49.358;11.140;2023-11-19T06:05:48;7.00;99.90
11961;DHT22;6040;49.358;11.140;2023-11-19T06:08:15;9.60;99.90
11961;DHT22;6040;49.358;11.140;2023-11-19T06:10:42;7.60;99.90
11961;DHT22;6040;49.358;11.140;2023-11-19T06:13:13;7.20;99.90
11961;DHT22;6040;49.358;11.140;2023-11-19T06:15:40;7.10;99.90
11961;DHT22;6040;49.358;11.140;2023-11-19T06:18:07;7.20;99.90
11961;DHT22;6040;49.358;11.140;2023-11-19T06:20:35;7.20;99.90
11961;DHT22;6040;49.358;11.140;2023-11-19T06:23:02;8.20;99.90
11961;DHT22;6040;49.358;11.140;2023-11-19T06:25:29;7.20;99.90
11961;DHT22;6040;49.358;11.140;2023-11-19T06:27:55;7.20;99.90
11961;DHT22;6040;49.358;11.140;2023-11-19T06:30:24;7.20;99.90
11961;DHT22;6040;49.358;11.140;2023-11-19T06:32:51;7.30;99.90
11961;DHT22;6040;49.358;11.140;2023-11-19T06:35:18;7.40;99.90
11961;DHT22;6040;49.358;11.140;2023-11-19T06:37:45;8.80;99.90
11961;DHT22;6040;49.358;11.140;2023-11-19T06:40:12;9.50;99.90
11961;DHT22;6040;49.358;11.140;2023-11-19T06:42:41;7.50;99.90
11961;DHT22;6040;49.358;11.140;2023-11-19T06:45:08;9.90;99.90
11961;DHT22;6040;49.358;11.140;2023-11-19T06:47:36;7.50;99.90
11961;DHT22;6040;49.358;11.140;2023-11-19T06:50:04;7.50;99.90
11961;DHT22;6040;49.358;11.140;2023-11-19T06:52:31;7.50;99.90
11961;DHT22;6040;49.358;11.140;2023-11-19T06:54:58;7.60;99.90
11961;DHT22;6040;49.358;11.140;2023-11-19T06:57:25;7.60;99.90
11961;DHT22;6040;49.358;11.140;2023-11-19T06:59:51;7.60;99.90
11961;DHT22;6040;49.358;11.140;2023-11-19T07:02:18;7.70;99.90
11961;DHT22;6040;49.358;11.140;2023-11-19T07:04:46;7.70;99.90
11961;DHT22;6040;49.358;11.140;2023-11-19T07:07:13;7.80;99.90
11961;DHT22;6040;49.358;11.140;2023-11-19T07:09:41;8.00;99.90
11961;DHT22;6040;49.358;11.140;2023-11-19T07:12:08;7.90;99.90
11961;DHT22;6040;49.358;11.140;2023-11-19T07:14:35;7.90;99.90
11961;DHT22;6040;49.358;11.140;2023-11-19T07:17:02;7.90;99.90
11961;DHT22;6040;49.358;11.140;2023-11-19T07:19:28;7.90;99.90
11961;DHT22;6040;49.358;11.140;2023-11-19T07:21:57;7.90;99.90
11961;DHT22;6040;49.358;11.140;2023-11-19T07:24:23;7.90;99.90
11961;DHT22;6040;49.358;11.140;2023-11-19T07:26:50;7.90;99.90
11961;DHT22;6040;49.358;11.140;2023-11-19T07:29:17;8.00;99.90
11961;DHT22;6040;49.358;11.140;2023-11-19T07:31:44;8.00;99.90
11961;DHT22;6040;49.358;11.140;2023-11-19T07:34:11;8.10;99.90
11961;DHT22;6040;49.358;11.140;2023-11-19T07:36:39;10.70;99.90
11961;DHT22;6040;49.358;11.140;2023-11-19T07:39:07;8.20;99.90
11961;DHT22;6040;49.358;11.140;2023-11-19T07:41:34;11.30;99.90
11961;DHT22;6040;49.358;11.140;2023-11-19T07:44:01;10.00;99.90
11961;DHT22;6040;49.358;11.140;2023-11-19T07:46:28;8.50;99.90
11961;DHT22;6040;49.358;11.140;2023-11-19T07:48:55;8.50;99.90
11961;DHT22;6040;49.358;11.140;2023-11-19T07:51:21;8.80;99.90
11961;DHT22;6040;49.358;11.140;2023-11-19T07:53:48;8.70;99.90
11961;DHT22;6040;49.358;11.140;2023-11-19T07:56:17;8.70;99.90
11961;DHT22;6040;49.358;11.140;2023-11-19T07:58:43;8.70;99.90
11961;DHT22;6040;49.358;11.140;2023-11-19T08:01:10;10.80;99.90
11961;DHT22;6040;49.358;11.140;2023-11-19T08:03:38;8.90;99.90
11961;DHT22;6040;49.358;11.140;2023-11-19T08:06:05;8.80;99.90
11961;DHT22;6040;49.358;11.140;2023-11-19T08:08:32;8.90;99.90
11961;DHT22;6040;49.358;11.140;2023-11-19T08:11:02;9.10;99.90
11961;DHT22;6040;49.358;11.140;2023-11-19T08:13:32;9.20;99.90
11961;DHT22;6040;49.358;11.140;2023-11-19T08:15:58;9.20;99.90
11961;DHT22;6040;49.358;11.140;2023-11-19T08:18:25;9.20;99.90
11961;DHT22;6040;49.358;11.140;2023-11-19T08:20:52;10.10;99.90
11961;DHT22;6040;49.358;11.140;2023-11-19T08:23:19;9.40;99.90
11961;DHT22;6040;49.358;11.140;2023-11-19T08:25:46;9.50;99.90
11961;DHT22;6040;49.358;11.140;2023-11-19T08:28:13;9.40;99.90
11961;DHT22;6040;49.358;11.140;2023-11-19T08:30:41;9.50;99.90
11961;DHT22;6040;49.358;11.140;2023-11-19T08:33:09;9.60;99.90
11961;DHT22;6040;49.358;11.140;2023-11-19T08:35:37;9.60;99.90
11961;DHT22;6040;49.358;11.140;2023-11-19T08:38:03;9.60;99.90
11961;DHT22;6040;49.358;11.140;2023-11-19T08:40:30;9.70;99.90
11961;DHT22;6040;49.358;11.140;2023-11-19T08:42:57;9.70;99.90
11961;DHT22;6040;49.358;11.140;2023-11-19T08:45:24;9.90;99.90
11961;DHT22;6040;49.358;11.140;2023-11-19T08:47:52;10.00;99.90
11961;DHT22;6040;49.358;11.140;2023-11-19T08:50:19;10.10;99.90
11961;DHT22;6040;49.358;11.140;2023-11-19T08:52:46;10.50;99.90
11961;DHT22;6040;49.358;11.140;2023-11-19T08:55:13;12.40;99.90
11961;DHT22;6040;49.358;11.140;2023-11-19T08:57:40;12.80;99.90
11961;DHT22;6040;49.358;11.140;2023-11-19T09:00:07;10.30;99.90
11961;DHT22;6040;49.358;11.140;2023-11-19T09:02:34;7.60;99.90
11961;DHT22;6040;49.358;11.140;2023-11-19T09:05:04;10.40;99.90
11961;DHT22;6040;49.358;11.140;2023-11-19T09:07:32;10.40;99.90
11961;DHT22;6040;49.358;11.140;2023-11-19T09:09:59;10.50;99.90
11961;DHT22;6040;49.358;11.140;2023-11-19T09:12:26;10.60;99.90
11961;DHT22;6040;49.358;11.140;2023-11-19T09:14:53;10.80;99.90
11961;DHT22;6040;49.358;11.140;2023-11-19T09:17:20;14.20;99.90
11961;DHT22;6040;49.358;11.140;2023-11-19T09:19:47;11.10;99.90
11961;DHT22;6040;49.358;11.140;2023-11-19T09:22:15;11.10;99.90
11961;DHT22;6040;49.358;11.140;2023-11-19T09:24:41;13.70;99.90
11961;DHT22;6040;49.358;11.140;2023-11-19T09:27:09;11.10;99.90
11961;DHT22;6040;49.358;11.140;2023-11-19T09:29:37;12.30;99.90
11961;DHT22;6040;49.358;11.140;2023-11-19T09:32:04;11.50;99.90
11961;DHT22;6040;49.358;11.140;2023-11-19T09:34:31;11.50;99.90
11961;DHT22;6040;49.358;11.140;2023-11-19T09:36:58;11.70;99.90
11961;DHT22;6040;49.358;11.140;2023-11-19T09:39:27;11.80;99.90
11961;DHT22;6040;49.358;11.140;2023-11-19T09:41:54;11.90;99.90
11961;DHT22;6040;49.358;11.140;2023-11-19T09:44:21;12.50;99.90
11961;DHT22;6040;49.358;11.140;2023-11-19T09:46:48;12.40;99.90
11961;DHT22;6040;49.358;11.140;2023-11-19T09:49:19;12.50;99.90
11961;DHT22;6040;49.358;11.140;2023-11-19T09:51:47;15.50;99.90
11961;DHT22;6040;49.358;11.140;2023-11-19T09:54:14;12.20;99.90
11961;DHT22;6040;49.358;11.140;2023-11-19T09:56:43;12.20;99.90
11961;DHT22;6040;49.358;11.140;2023-11-19T09:59:10;12.20;99.90
11961;DHT22;6040;49.358;11.140;2023-11-19T10:01:38;14.90;99.90
11961;DHT22;6040;49.358;11.140;2023-11-19T10:04:06;11.90;99.90
11961;DHT22;6040;49.358;11.140;2023-11-19T10:06:33;11.90;99.90
11961;DHT22;6040;49.358;11.140;2023-11-19T10:09:00;12.00;99.90
11961;DHT22;6040;49.358;11.140;2023-11-19T10:11:30;11.90;99.90
11961;DHT22;6040;49.358;11.140;2023-11-19T10:13:59;11.90;99.90
11961;DHT22;6040;49.358;11.140;2023-11-19T10:16:29;11.90;99.90
11961;DHT22;6040;49.358;11.140;2023-11-19T10:18:57;11.90;99.90
11961;DHT22;6040;49.358;11.140;2023-11-19T10:21:24;11.90;99.90
11961;DHT22;6040;49.358;11.140;2023-11-19T10:23:55;11.90;99.90
11961;DHT22;6040;49.358;11.140;2023-11-19T10:26:23;11.90;99.90
11961;DHT22;6040;49.358;11.140;2023-11-19T10:28:50;11.90;99.90
11961;DHT22;6040;49.358;11.140;2023-11-19T10:31:19;12.00;99.90
11961;DHT22;6040;49.358;11.140;2023-11-19T10:33:50;12.00;99.90
11961;DHT22;6040;49.358;11.140;2023-11-19T10:36:17;13.60;99.90
11961;DHT22;6040;49.358;11.140;2023-11-19T10:38:52;13.90;99.90
11961;DHT22;6040;49.358;11.140;2023-11-19T10:41:27;13.70;99.90
11961;DHT22;6040;49.358;11.140;2023-11-19T10:43:54;13.40;99.90
11961;DHT22;6040;49.358;11.140;2023-11-19T10:46:22;11.80;99.90
11961;DHT22;6040;49.358;11.140;2023-11-19T10:48:49;11.80;99.90
11961;DHT22;6040;49.358;11.140;2023-11-19T10:51:19;12.00;99.90
11961;DHT22;6040;49.358;11.140;2023-11-19T10:53:49;12.40;99.90
11961;DHT22;6040;49.358;11.140;2023-11-19T10:56:17;12.80;99.90
11961;DHT22;6040;49.358;11.140;2023-11-19T10:58:45;13.90;99.90
11961;DHT22;6040;49.358;11.140;2023-11-19T11:01:15;13.10;99.90
11961;DHT22;6040;49.358;11.140;2023-11-19T11:03:45;13.30;99.90
11961;DHT22;6040;49.358;11.140;2023-11-19T11:06:13;13.40;99.90
11961;DHT22;6040;49.358;11.140;2023-11-19T11:08:40;16.20;99.90
11961;DHT22;6040;49.358;11.140;2023-11-19T11:11:08;13.30;99.90
11961;DHT22;6040;49.358;11.140;2023-11-19T11:13:37;13.30;99.90
11961;DHT22;6040;49.358;11.140;2023-11-19T11:16:08;13.30;99.90
11961;DHT22;6040;49.358;11.140;2023-11-19T11:18:36;13.00;99.90
11961;DHT22;6040;49.358;11.140;2023-11-19T11:21:07;13.00;99.90
11961;DHT22;6040;49.358;11.140;2023-11-19T11:23:53;12.90;99.90
11961;DHT22;6040;49.358;11.140;2023-11-19T11:29:31;12.80;99.90
11961;DHT22;6040;49.358;11.140;2023-11-19T11:32:08;12.90;99.90
11961;DHT22;6040;49.358;11.140;2023-11-19T11:34:57;13.10;99.90
11961;DHT22;6040;49.358;11.140;2023-11-19T11:37:32;13.10;99.90
11961;DHT22;6040;49.358;11.140;2023-11-19T11:40:01;13.00;99.90
11961;DHT22;6040;49.358;11.140;2023-11-19T11:42:32;13.00;99.90
11961;DHT22;6040;49.358;11.140;2023-11-19T11:44:59;13.00;99.90
11961;DHT22;6040;49.358;11.140;2023-11-19T11:50:53;13.00;99.90
11961;DHT22;6040;49.358;11.140;2023-11-19T11:53:23;13.10;99.90
11961;DHT22;6040;49.358;11.140;2023-11-19T11:55:57;13.20;99.90
11961;DHT22;6040;49.358;11.140;2023-11-19T11:58:27;13.20;99.90
11961;DHT22;6040;49.358;11.140;2023-11-19T12:00:57;13.20;99.90
11961;DHT22;6040;49.358;11.140;2023-11-19T12:03:27;13.10;99.90
11961;DHT22;6040;49.358;11.140;2023-11-19T12:05:54;13.00;99.90
11961;DHT22;6040;49.358;11.140;2023-11-19T12:08:26;13.00;99.90
11961;DHT22;6040;49.358;11.140;2023-11-19T12:10:54;14.50;99.90
11961;DHT22;6040;49.358;11.140;2023-11-19T12:13:23;12.90;99.90
11961;DHT22;6040;49.358;11.140;2023-11-19T12:16:09;12.90;99.90
11961;DHT22;6040;49.358;11.140;2023-11-19T12:18:39;12.90;99.90
11961;DHT22;6040;49.358;11.140;2023-11-19T12:21:06;12.90;99.90
11961;DHT22;6040;49.358;11.140;2023-11-19T12:23:44;12.80;99.90
11961;DHT22;6040;49.358;11.140;2023-11-19T12:26:21;12.80;99.90
11961;DHT22;6040;49.358;11.140;2023-11-19T12:28:57;15.30;99.90
11961;DHT22;6040;49.358;11.140;2023-11-19T12:31:24;13.40;99.90
11961;DHT22;6040;49.358;11.140;2023-11-19T12:33:51;12.90;99.90
11961;DHT22;6040;49.358;11.140;2023-11-19T12:36:19;13.00;99.90
11961;DHT22;6040;49.358;11.140;2023-11-19T12:38:47;13.30;99.90
11961;DHT22;6040;49.358;11.140;2023-11-19T12:41:14;13.40;99.90
11961;DHT22;6040;49.358;11.140;2023-11-19T12:43:46;13.60;99.90
11961;DHT22;6040;49.358;11.140;2023-11-19T12:46:20;13.70;99.90
11961;DHT22;6040;49.358;11.140;2023-11-19T12:48:47;13.90;99.90
11961;DHT22;6040;49.358;11.140;2023-11-19T12:51:14;14.00;99.90
11961;DHT22;6040;49.358;11.140;2023-11-19T12:53:49;14.10;99.90
11961;DHT22;6040;49.358;11.140;2023-11-19T12:56:18;14.10;99.90
11961;DHT22;6040;49.358;11.140;2023-11-19T12:58:45;14.10;99.90
11961;DHT22;6040;49.358;11.140;2023-11-19T13:01:16;14.00;99.90
11961;DHT22;6040;49.358;11.140;2023-11-19T13:03:44;13.70;99.90
11961;DHT22;6040;49.358;11.140;2023-11-19T13:06:13;13.80;99.90
11961;DHT22;6040;49.358;11.140;2023-11-19T13:08:41;14.00;99.90
11961;DHT22;6040;49.358;11.140;2023-11-19T13:11:11;14.30;99.90
11961;DHT22;6040;49.358;11.140;2023-11-19T13:13:54;14.50;99.90
11961;DHT22;6040;49.358;11.140;2023-11-19T13:16:21;14.60;99.90
11961;DHT22;6040;49.358;11.140;2023-11-19T13:18:48;14.30;99.90
11961;DHT22;6040;49.358;11.140;2023-11-19T13:21:15;15.40;99.90
11961;DHT22;6040;49.358;11.140;2023-11-19T13:23:42;14.10;99.90
11961;DHT22;6040;49.358;11.140;2023-11-19T13:26:10;14.10;99.90
11961;DHT22;6040;49.358;11.140;2023-11-19T13:28:37;14.00;99.90
11961;DHT22;6040;49.358;11.140;2023-11-19T13:31:05;14.00;99.90
11961;DHT22;6040;49.358;11.140;2023-11-19T13:33:32;13.90;99.90
11961;DHT22;6040;49.358;11.140;2023-11-19T13:35:58;13.90;99.90
11961;DHT22;6040;49.358;11.140;2023-11-19T13:38:31;13.90;99.90
11961;DHT22;6040;49.358;11.140;2023-11-19T13:40:58;15.40;99.90
11961;DHT22;6040;49.358;11.140;2023-11-19T13:43:26;14.10;99.90
11961;DHT22;6040;49.358;11.140;2023-11-19T13:45:53;14.00;99.90
11961;DHT22;6040;49.358;11.140;2023-11-19T13:48:20;14.00;99.90
11961;DHT22;6040;49.358;11.140;2023-11-19T13:50:47;14.60;99.90
11961;DHT22;6040;49.358;11.140;2023-11-19T13:53:14;13.90;99.90
11961;DHT22;6040;49.358;11.140;2023-11-19T13:55:41;13.90;99.90
11961;DHT22;6040;49.358;11.140;2023-11-19T13:58:08;13.80;99.90
11961;DHT22;6040;49.358;11.140;2023-11-19T14:00:37;13.90;99.90
11961;DHT22;6040;49.358;11.140;2023-11-19T14:03:04;13.80;99.90
11961;DHT22;6040;49.358;11.140;2023-11-19T14:05:32;13.90;99.90
11961;DHT22;6040;49.358;11.140;2023-11-19T14:07:58;13.90;99.90
11961;DHT22;6040;49.358;11.140;2023-11-19T14:10:26;13.90;99.90
11961;DHT22;6040;49.358;11.140;2023-11-19T14:12:54;13.80;99.90
11961;DHT22;6040;49.358;11.140;2023-11-19T14:15:20;13.70;99.90
11961;DHT22;6040;49.358;11.140;2023-11-19T14:17:49;13.60;99.90
11961;DHT22;6040;49.358;11.140;2023-11-19T14:20:15;13.60;99.90
11961;DHT22;6040;49.358;11.140;2023-11-19T14:22:44;13.40;99.90
11961;DHT22;6040;49.358;11.140;2023-11-19T14:25:14;13.40;99.90
11961;DHT22;6040;49.358;11.140;2023-11-19T14:27:41;13.40;99.90
11961;DHT22;6040;49.358;11.140;2023-11-19T14:30:10;13.40;99.90
11961;DHT22;6040;49.358;11.140;2023-11-19T14:32:38;13.30;99.90
11961;DHT22;6040;49.358;11.140;2023-11-19T14:35:07;13.20;99.90
11961;DHT22;6040;49.358;11.140;2023-11-19T14:37:34;13.20;99.90
11961;DHT22;6040;49.358;11.140;2023-11-19T14:40:01;13.80;99.90
11961;DHT22;6040;49.358;11.140;2023-11-19T14:42:29;13.10;99.90
11961;DHT22;6040;49.358;11.140;2023-11-19T14:44:56;13.10;99.90
11961;DHT22;6040;49.358;11.140;2023-11-19T14:47:24;14.10;99.90
11961;DHT22;6040;49.358;11.140;2023-11-19T14:49:51;15.90;99.90
11961;DHT22;6040;49.358;11.140;2023-11-19T14:52:19;13.10;99.90
11961;DHT22;6040;49.358;11.140;2023-11-19T14:54:46;14.30;99.90
11961;DHT22;6040;49.358;11.140;2023-11-19T14:57:13;12.90;99.90
11961;DHT22;6040;49.358;11.140;2023-11-19T14:59:40;12.80;99.90
11961;DHT22;6040;49.358;11.140;2023-11-19T15:02:07;12.80;99.90
11961;DHT22;6040;49.358;11.140;2023-11-19T15:04:33;15.90;99.90
11961;DHT22;6040;49.358;11.140;2023-11-19T15:07:00;12.60;99.90
11961;DHT22;6040;49.358;11.140;2023-11-19T15:09:31;12.50;99.90
11961;DHT22;6040;49.358;11.140;2023-11-19T15:11:58;12.40;99.90
11961;DHT22;6040;49.358;11.140;2023-11-19T15:14:25;13.90;99.90
11961;DHT22;6040;49.358;11.140;2023-11-19T15:16:52;12.40;99.90
11961;DHT22;6040;49.358;11.140;2023-11-19T15:19:19;12.30;99.90
11961;DHT22;6040;49.358;11.140;2023-11-19T15:21:46;12.30;99.90
11961;DHT22;6040;49.358;11.140;2023-11-19T15:24:13;12.30;99.90
11961;DHT22;6040;49.358;11.140;2023-11-19T15:26:41;12.30;99.90
11961;DHT22;6040;49.358;11.140;2023-11-19T15:29:08;12.20;99.90
11961;DHT22;6040;49.358;11.140;2023-11-19T15:31:35;12.30;99.90
11961;DHT22;6040;49.358;11.140;2023-11-19T15:34:02;12.20;99.90
11961;DHT22;6040;49.358;11.140;2023-11-19T15:36:29;12.20;99.90
11961;DHT22;6040;49.358;11.140;2023-11-19T15:38:57;12.30;99.90
11961;DHT22;6040;49.358;11.140;2023-11-19T15:41:24;12.30;99.90
11961;DHT22;6040;49.358;11.140;2023-11-19T15:43:54;12.20;99.90
11961;DHT22;6040;49.358;11.140;2023-11-19T15:46:21;12.10;99.90
11961;DHT22;6040;49.358;11.140;2023-11-19T15:48:48;12.20;99.90
11961;DHT22;6040;49.358;11.140;2023-11-19T15:51:15;12.10;99.90